sensor_id;sensor_type;location;lat;lon;timestamp;P1;durP1;ratioP1;P2;durP2;ratioP2
14516;SDS011;7344;50.864;4.362;2022-12-13T00:01:30;42.33;;;21.67;;
14516;SDS011;7344;50.864;4.362;2022-12-13T00:03:57;44.53;;;21.70;;
14516;SDS011;7344;50.864;4.362;2022-12-13T00:06:25;45.53;;;21.73;;
14516;SDS011;7344;50.864;4.362;2022-12-13T00:08:51;42.40;;;20.67;;
14516;SDS011;7344;50.864;4.362;2022-12-13T00:11:17;43.87;;;22.00;;
14516;SDS011;7344;50.864;4.362;2022-12-13T00:13:43;42.33;;;22.73;;
14516;SDS011;7344;50.864;4.362;2022-12-13T00:16:11;39.60;;;20.87;;
14516;SDS011;7344;50.864;4.362;2022-12-13T00:18:40;34.03;;;18.17;;
14516;SDS011;7344;50.864;4.362;2022-12-13T00:21:06;34.83;;;17.60;;
14516;SDS011;7344;50.864;4.362;2022-12-13T00:23:34;37.77;;;20.43;;
14516;SDS011;7344;50.864;4.362;2022-12-13T00:26:03;37.47;;;18.93;;
14516;SDS011;7344;50.864;4.362;2022-12-13T00:28:34;38.23;;;19.23;;
14516;SDS011;7344;50.864;4.362;2022-12-13T00:31:01;41.97;;;20.67;;
14516;SDS011;7344;50.864;4.362;2022-12-13T00:33:27;40.57;;;19.10;;
14516;SDS011;7344;50.864;4.362;2022-12-13T00:35:53;31.80;;;16.77;;
14516;SDS011;7344;50.864;4.362;2022-12-13T00:38:20;33.20;;;19.30;;
14516;SDS011;7344;50.864;4.362;2022-12-13T00:40:46;35.63;;;17.87;;
14516;SDS011;7344;50.864;4.362;2022-12-13T00:43:11;34.37;;;18.53;;
14516;SDS011;7344;50.864;4.362;2022-12-13T00:45:37;32.57;;;17.10;;
14516;SDS011;7344;50.864;4.362;2022-12-13T00:48:04;34.67;;;18.07;;
14516;SDS011;7344;50.864;4.362;2022-12-13T00:50:30;43.63;;;22.10;;
14516;SDS011;7344;50.864;4.362;2022-12-13T00:52:57;44.73;;;22.07;;
14516;SDS011;7344;50.864;4.362;2022-12-13T00:55:23;34.23;;;18.20;;
14516;SDS011;7344;50.864;4.362;2022-12-13T00:57:48;41.57;;;21.33;;
14516;SDS011;7344;50.864;4.362;2022-12-13T01:00:14;42.10;;;22.47;;
14516;SDS011;7344;50.864;4.362;2022-12-13T01:02:40;39.53;;;21.57;;
14516;SDS011;7344;50.864;4.362;2022-12-13T01:05:07;40.13;;;21.30;;
14516;SDS011;7344;50.864;4.362;2022-12-13T01:07:33;33.33;;;18.30;;
14516;SDS011;7344;50.864;4.362;2022-12-13T01:09:59;39.57;;;21.60;;
14516;SDS011;7344;50.864;4.362;2022-12-13T01:12:25;49.40;;;22.03;;
14516;SDS011;7344;50.864;4.362;2022-12-13T01:14:51;39.43;;;22.10;;
14516;SDS011;7344;50.864;4.362;2022-12-13T01:17:16;36.53;;;19.47;;
14516;SDS011;7344;50.864;4.362;2022-12-13T01:19:42;40.63;;;17.90;;
14516;SDS011;7344;50.864;4.362;2022-12-13T01:22:07;38.27;;;18.83;;
14516;SDS011;7344;50.864;4.362;2022-12-13T01:24:35;42.53;;;18.93;;
14516;SDS011;7344;50.864;4.362;2022-12-13T01:27:00;39.33;;;20.97;;
14516;SDS011;7344;50.864;4.362;2022-12-13T01:29:26;33.13;;;16.70;;
14516;SDS011;7344;50.864;4.362;2022-12-13T01:31:52;35.90;;;18.73;;
14516;SDS011;7344;50.864;4.362;2022-12-13T01:34:19;33.83;;;15.77;;
14516;SDS011;7344;50.864;4.362;2022-12-13T01:36:46;30.20;;;16.07;;
14516;SDS011;7344;50.864;4.362;2022-12-13T01:39:13;30.13;;;16.40;;
14516;SDS011;7344;50.864;4.362;2022-12-13T01:41:40;31.80;;;16.90;;
14516;SDS011;7344;50.864;4.362;2022-12-13T01:47:11;31.00;;;16.23;;
14516;SDS011;7344;50.864;4.362;2022-12-13T01:49:41;30.30;;;16.87;;
14516;SDS011;7344;50.864;4.362;2022-12-13T01:52:07;32.50;;;16.83;;
14516;SDS011;7344;50.864;4.362;2022-12-13T01:54:37;27.07;;;15.07;;
14516;SDS011;7344;50.864;4.362;2022-12-13T01:57:05;29.27;;;16.93;;
14516;SDS011;7344;50.864;4.362;2022-12-13T01:59:33;24.00;;;13.50;;
14516;SDS011;7344;50.864;4.362;2022-12-13T02:02:01;29.30;;;15.33;;
14516;SDS011;7344;50.864;4.362;2022-12-13T02:05:12;32.50;;;17.13;;
14516;SDS011;7344;50.864;4.362;2022-12-13T02:07:21;25.67;;;14.60;;
14516;SDS011;7344;50.864;4.362;2022-12-13T02:09:51;27.60;;;14.10;;
14516;SDS011;7344;50.864;4.362;2022-12-13T02:12:19;27.23;;;14.50;;
14516;SDS011;7344;50.864;4.362;2022-12-13T02:14:45;24.37;;;14.33;;
14516;SDS011;7344;50.864;4.362;2022-12-13T02:30:51;26.00;;;12.93;;
14516;SDS011;7344;50.864;4.362;2022-12-13T02:36:49;27.13;;;15.20;;
14516;SDS011;7344;50.864;4.362;2022-12-13T02:39:16;22.33;;;13.40;;
14516;SDS011;7344;50.864;4.362;2022-12-13T02:41:50;23.30;;;14.10;;
14516;SDS011;7344;50.864;4.362;2022-12-13T02:44:19;31.67;;;15.27;;
14516;SDS011;7344;50.864;4.362;2022-12-13T02:46:54;25.60;;;14.80;;
14516;SDS011;7344;50.864;4.362;2022-12-13T02:49:26;28.00;;;15.10;;
14516;SDS011;7344;50.864;4.362;2022-12-13T02:51:55;26.50;;;14.50;;
14516;SDS011;7344;50.864;4.362;2022-12-13T02:54:23;22.70;;;13.87;;
14516;SDS011;7344;50.864;4.362;2022-12-13T02:56:52;26.23;;;14.03;;
14516;SDS011;7344;50.864;4.362;2022-12-13T02:59:19;28.23;;;14.03;;
14516;SDS011;7344;50.864;4.362;2022-12-13T03:01:55;27.00;;;14.33;;
14516;SDS011;7344;50.864;4.362;2022-12-13T03:06:56;27.73;;;15.50;;
14516;SDS011;7344;50.864;4.362;2022-12-13T03:17:49;24.80;;;14.87;;
14516;SDS011;7344;50.864;4.362;2022-12-13T03:20:46;24.50;;;13.47;;
14516;SDS011;7344;50.864;4.362;2022-12-13T03:23:17;26.00;;;14.33;;
14516;SDS011;7344;50.864;4.362;2022-12-13T03:25:44;24.97;;;14.40;;
14516;SDS011;7344;50.864;4.362;2022-12-13T03:28:13;21.47;;;13.50;;
14516;SDS011;7344;50.864;4.362;2022-12-13T03:30:39;24.63;;;14.33;;
14516;SDS011;7344;50.864;4.362;2022-12-13T03:33:04;26.60;;;14.87;;
14516;SDS011;7344;50.864;4.362;2022-12-13T03:35:30;24.27;;;14.50;;
14516;SDS011;7344;50.864;4.362;2022-12-13T03:37:57;25.07;;;13.70;;
14516;SDS011;7344;50.864;4.362;2022-12-13T03:40:23;23.50;;;12.87;;
14516;SDS011;7344;50.864;4.362;2022-12-13T03:42:49;25.70;;;14.57;;
14516;SDS011;7344;50.864;4.362;2022-12-13T03:45:15;24.40;;;13.63;;
14516;SDS011;7344;50.864;4.362;2022-12-13T03:47:42;24.13;;;13.77;;
14516;SDS011;7344;50.864;4.362;2022-12-13T03:50:08;25.33;;;13.83;;
14516;SDS011;7344;50.864;4.362;2022-12-13T03:52:34;19.23;;;10.70;;
14516;SDS011;7344;50.864;4.362;2022-12-13T03:54:59;22.63;;;13.13;;
14516;SDS011;7344;50.864;4.362;2022-12-13T03:57:25;22.37;;;13.67;;
14516;SDS011;7344;50.864;4.362;2022-12-13T03:59:50;26.83;;;13.30;;
14516;SDS011;7344;50.864;4.362;2022-12-13T04:02:16;28.30;;;15.90;;
14516;SDS011;7344;50.864;4.362;2022-12-13T04:04:41;26.70;;;15.20;;
14516;SDS011;7344;50.864;4.362;2022-12-13T04:07:07;28.90;;;14.70;;
14516;SDS011;7344;50.864;4.362;2022-12-13T04:09:33;24.93;;;14.00;;
14516;SDS011;7344;50.864;4.362;2022-12-13T04:11:58;23.83;;;13.67;;
14516;SDS011;7344;50.864;4.362;2022-12-13T04:14:42;26.47;;;14.00;;
14516;SDS011;7344;50.864;4.362;2022-12-13T04:17:08;22.97;;;14.57;;
14516;SDS011;7344;50.864;4.362;2022-12-13T04:19:33;25.33;;;14.47;;
14516;SDS011;7344;50.864;4.362;2022-12-13T04:21:59;25.03;;;14.23;;
14516;SDS011;7344;50.864;4.362;2022-12-13T04:24:25;27.50;;;16.13;;
14516;SDS011;7344;50.864;4.362;2022-12-13T04:26:50;23.57;;;14.63;;
14516;SDS011;7344;50.864;4.362;2022-12-13T04:29:16;29.20;;;16.73;;
14516;SDS011;7344;50.864;4.362;2022-12-13T04:31:42;31.13;;;18.37;;
14516;SDS011;7344;50.864;4.362;2022-12-13T04:34:07;31.20;;;17.13;;
14516;SDS011;7344;50.864;4.362;2022-12-13T04:36:33;30.33;;;17.37;;
14516;SDS011;7344;50.864;4.362;2022-12-13T04:38:59;27.80;;;16.70;;
14516;SDS011;7344;50.864;4.362;2022-12-13T04:41:26;30.10;;;16.47;;
14516;SDS011;7344;50.864;4.362;2022-12-13T04:43:53;28.63;;;16.40;;
14516;SDS011;7344;50.864;4.362;2022-12-13T04:46:19;31.03;;;16.63;;
14516;SDS011;7344;50.864;4.362;2022-12-13T04:48:45;32.13;;;16.97;;
14516;SDS011;7344;50.864;4.362;2022-12-13T04:51:11;32.67;;;18.47;;
14516;SDS011;7344;50.864;4.362;2022-12-13T04:53:40;32.20;;;17.80;;
14516;SDS011;7344;50.864;4.362;2022-12-13T04:56:06;28.03;;;17.00;;
14516;SDS011;7344;50.864;4.362;2022-12-13T04:58:32;28.47;;;16.50;;
14516;SDS011;7344;50.864;4.362;2022-12-13T05:00:58;22.70;;;13.30;;
14516;SDS011;7344;50.864;4.362;2022-12-13T05:03:23;29.43;;;17.07;;
14516;SDS011;7344;50.864;4.362;2022-12-13T05:05:49;28.00;;;16.73;;
14516;SDS011;7344;50.864;4.362;2022-12-13T05:08:15;33.17;;;17.47;;
14516;SDS011;7344;50.864;4.362;2022-12-13T05:10:40;28.53;;;16.90;;
14516;SDS011;7344;50.864;4.362;2022-12-13T05:13:06;26.90;;;15.17;;
14516;SDS011;7344;50.864;4.362;2022-12-13T05:15:32;27.77;;;15.23;;
14516;SDS011;7344;50.864;4.362;2022-12-13T05:17:58;25.53;;;14.00;;
14516;SDS011;7344;50.864;4.362;2022-12-13T05:20:28;29.97;;;15.77;;
14516;SDS011;7344;50.864;4.362;2022-12-13T05:22:54;27.50;;;16.10;;
14516;SDS011;7344;50.864;4.362;2022-12-13T05:25:21;26.70;;;15.83;;
14516;SDS011;7344;50.864;4.362;2022-12-13T05:27:50;29.73;;;15.90;;
14516;SDS011;7344;50.864;4.362;2022-12-13T05:30:16;28.50;;;16.10;;
14516;SDS011;7344;50.864;4.362;2022-12-13T05:32:42;29.33;;;15.57;;
14516;SDS011;7344;50.864;4.362;2022-12-13T05:35:07;31.20;;;15.77;;
14516;SDS011;7344;50.864;4.362;2022-12-13T05:37:33;31.80;;;17.47;;
14516;SDS011;7344;50.864;4.362;2022-12-13T05:39:59;29.40;;;16.97;;
14516;SDS011;7344;50.864;4.362;2022-12-13T05:42:25;22.83;;;14.30;;
14516;SDS011;7344;50.864;4.362;2022-12-13T05:44:51;28.83;;;16.13;;
14516;SDS011;7344;50.864;4.362;2022-12-13T05:47:17;25.57;;;15.73;;
14516;SDS011;7344;50.864;4.362;2022-12-13T05:49:43;28.57;;;16.07;;
14516;SDS011;7344;50.864;4.362;2022-12-13T05:52:18;30.53;;;16.13;;
14516;SDS011;7344;50.864;4.362;2022-12-13T05:54:45;29.67;;;15.27;;
14516;SDS011;7344;50.864;4.362;2022-12-13T05:57:11;25.80;;;15.77;;
14516;SDS011;7344;50.864;4.362;2022-12-13T05:59:36;28.70;;;16.63;;
14516;SDS011;7344;50.864;4.362;2022-12-13T06:02:02;38.07;;;18.10;;
14516;SDS011;7344;50.864;4.362;2022-12-13T06:04:28;34.77;;;17.93;;
14516;SDS011;7344;50.864;4.362;2022-12-13T06:06:53;28.93;;;16.77;;
14516;SDS011;7344;50.864;4.362;2022-12-13T06:09:19;35.63;;;17.90;;
14516;SDS011;7344;50.864;4.362;2022-12-13T06:11:45;30.27;;;17.07;;
14516;SDS011;7344;50.864;4.362;2022-12-13T06:14:12;36.07;;;19.00;;
14516;SDS011;7344;50.864;4.362;2022-12-13T06:16:38;34.37;;;18.03;;
14516;SDS011;7344;50.864;4.362;2022-12-13T06:19:04;39.20;;;19.40;;
14516;SDS011;7344;50.864;4.362;2022-12-13T06:21:30;29.87;;;17.67;;
14516;SDS011;7344;50.864;4.362;2022-12-13T06:23:57;35.10;;;19.17;;
14516;SDS011;7344;50.864;4.362;2022-12-13T06:26:22;33.40;;;18.50;;
14516;SDS011;7344;50.864;4.362;2022-12-13T06:28:48;33.73;;;18.80;;
14516;SDS011;7344;50.864;4.362;2022-12-13T06:31:13;33.23;;;17.30;;
14516;SDS011;7344;50.864;4.362;2022-12-13T06:33:39;31.67;;;16.40;;
14516;SDS011;7344;50.864;4.362;2022-12-13T06:36:05;33.10;;;17.73;;
14516;SDS011;7344;50.864;4.362;2022-12-13T06:38:31;35.87;;;18.30;;
14516;SDS011;7344;50.864;4.362;2022-12-13T06:41:06;31.63;;;17.43;;
14516;SDS011;7344;50.864;4.362;2022-12-13T06:43:36;36.20;;;17.97;;
14516;SDS011;7344;50.864;4.362;2022-12-13T06:46:05;31.63;;;18.00;;
14516;SDS011;7344;50.864;4.362;2022-12-13T06:48:30;31.70;;;17.10;;
14516;SDS011;7344;50.864;4.362;2022-12-13T06:51:00;31.87;;;17.13;;
14516;SDS011;7344;50.864;4.362;2022-12-13T06:53:26;32.63;;;17.83;;
14516;SDS011;7344;50.864;4.362;2022-12-13T06:55:52;31.33;;;15.93;;
14516;SDS011;7344;50.864;4.362;2022-12-13T06:58:18;32.40;;;17.10;;
14516;SDS011;7344;50.864;4.362;2022-12-13T07:00:44;28.83;;;17.03;;
14516;SDS011;7344;50.864;4.362;2022-12-13T07:03:10;36.20;;;17.13;;
14516;SDS011;7344;50.864;4.362;2022-12-13T07:05:36;35.13;;;17.30;;
14516;SDS011;7344;50.864;4.362;2022-12-13T07:08:02;33.53;;;17.97;;
14516;SDS011;7344;50.864;4.362;2022-12-13T07:10:28;32.90;;;18.17;;
14516;SDS011;7344;50.864;4.362;2022-12-13T07:12:54;37.63;;;19.33;;
14516;SDS011;7344;50.864;4.362;2022-12-13T07:15:20;38.07;;;19.97;;
14516;SDS011;7344;50.864;4.362;2022-12-13T07:17:49;36.00;;;18.67;;
14516;SDS011;7344;50.864;4.362;2022-12-13T07:20:15;38.00;;;19.20;;
14516;SDS011;7344;50.864;4.362;2022-12-13T07:22:43;33.60;;;18.43;;
14516;SDS011;7344;50.864;4.362;2022-12-13T07:25:08;35.23;;;19.37;;
14516;SDS011;7344;50.864;4.362;2022-12-13T07:27:35;33.80;;;18.97;;
14516;SDS011;7344;50.864;4.362;2022-12-13T07:30:01;35.47;;;18.97;;
14516;SDS011;7344;50.864;4.362;2022-12-13T07:32:27;36.57;;;18.63;;
14516;SDS011;7344;50.864;4.362;2022-12-13T07:34:53;30.07;;;17.33;;
14516;SDS011;7344;50.864;4.362;2022-12-13T07:37:18;30.50;;;17.93;;
14516;SDS011;7344;50.864;4.362;2022-12-13T07:39:44;35.07;;;17.90;;
14516;SDS011;7344;50.864;4.362;2022-12-13T07:42:10;34.83;;;19.00;;
14516;SDS011;7344;50.864;4.362;2022-12-13T07:44:36;35.07;;;19.07;;
14516;SDS011;7344;50.864;4.362;2022-12-13T07:47:01;30.03;;;17.87;;
14516;SDS011;7344;50.864;4.362;2022-12-13T07:49:27;33.33;;;18.90;;
14516;SDS011;7344;50.864;4.362;2022-12-13T07:51:53;36.60;;;18.63;;
14516;SDS011;7344;50.864;4.362;2022-12-13T07:54:18;32.17;;;17.97;;
14516;SDS011;7344;50.864;4.362;2022-12-13T07:56:44;30.47;;;18.03;;
14516;SDS011;7344;50.864;4.362;2022-12-13T07:59:10;34.03;;;18.60;;
14516;SDS011;7344;50.864;4.362;2022-12-13T08:01:35;32.57;;;18.60;;
14516;SDS011;7344;50.864;4.362;2022-12-13T08:04:02;33.57;;;17.97;;
14516;SDS011;7344;50.864;4.362;2022-12-13T08:06:29;36.50;;;20.00;;
14516;SDS011;7344;50.864;4.362;2022-12-13T08:08:58;36.90;;;19.10;;
14516;SDS011;7344;50.864;4.362;2022-12-13T08:11:24;30.27;;;17.60;;
14516;SDS011;7344;50.864;4.362;2022-12-13T08:13:50;33.43;;;19.03;;
14516;SDS011;7344;50.864;4.362;2022-12-13T08:16:17;38.10;;;18.47;;
14516;SDS011;7344;50.864;4.362;2022-12-13T08:18:43;33.73;;;18.87;;
14516;SDS011;7344;50.864;4.362;2022-12-13T08:21:11;30.67;;;17.53;;
14516;SDS011;7344;50.864;4.362;2022-12-13T08:23:37;31.97;;;18.17;;
14516;SDS011;7344;50.864;4.362;2022-12-13T08:26:03;33.80;;;18.43;;
14516;SDS011;7344;50.864;4.362;2022-12-13T08:28:30;34.77;;;18.97;;
14516;SDS011;7344;50.864;4.362;2022-12-13T08:31:04;30.77;;;17.50;;
14516;SDS011;7344;50.864;4.362;2022-12-13T08:33:32;33.50;;;19.00;;
14516;SDS011;7344;50.864;4.362;2022-12-13T08:36:06;35.60;;;20.30;;
14516;SDS011;7344;50.864;4.362;2022-12-13T08:38:32;29.67;;;15.17;;
14516;SDS011;7344;50.864;4.362;2022-12-13T08:40:58;29.23;;;16.10;;
14516;SDS011;7344;50.864;4.362;2022-12-13T08:43:23;26.13;;;15.83;;
14516;SDS011;7344;50.864;4.362;2022-12-13T08:45:49;26.73;;;16.27;;
14516;SDS011;7344;50.864;4.362;2022-12-13T08:48:15;28.40;;;15.40;;
14516;SDS011;7344;50.864;4.362;2022-12-13T08:50:40;26.07;;;15.60;;
14516;SDS011;7344;50.864;4.362;2022-12-13T08:53:06;29.13;;;15.63;;
14516;SDS011;7344;50.864;4.362;2022-12-13T08:55:31;27.47;;;16.37;;
14516;SDS011;7344;50.864;4.362;2022-12-13T08:57:57;23.53;;;15.67;;
14516;SDS011;7344;50.864;4.362;2022-12-13T09:00:23;23.33;;;16.10;;
14516;SDS011;7344;50.864;4.362;2022-12-13T09:02:48;25.73;;;15.57;;
14516;SDS011;7344;50.864;4.362;2022-12-13T09:05:14;27.20;;;15.27;;
14516;SDS011;7344;50.864;4.362;2022-12-13T09:07:40;24.23;;;15.87;;
14516;SDS011;7344;50.864;4.362;2022-12-13T09:10:10;24.63;;;16.37;;
14516;SDS011;7344;50.864;4.362;2022-12-13T09:12:39;25.07;;;16.10;;
14516;SDS011;7344;50.864;4.362;2022-12-13T09:15:05;25.10;;;16.00;;
14516;SDS011;7344;50.864;4.362;2022-12-13T09:17:31;24.67;;;16.57;;
14516;SDS011;7344;50.864;4.362;2022-12-13T09:19:57;25.40;;;17.03;;
14516;SDS011;7344;50.864;4.362;2022-12-13T09:22:22;21.50;;;15.60;;
14516;SDS011;7344;50.864;4.362;2022-12-13T09:24:48;26.97;;;15.00;;
14516;SDS011;7344;50.864;4.362;2022-12-13T09:27:14;23.40;;;15.87;;
14516;SDS011;7344;50.864;4.362;2022-12-13T09:29:39;24.30;;;16.20;;
14516;SDS011;7344;50.864;4.362;2022-12-13T09:32:05;29.50;;;17.40;;
14516;SDS011;7344;50.864;4.362;2022-12-13T09:34:30;23.40;;;14.80;;
14516;SDS011;7344;50.864;4.362;2022-12-13T09:36:59;25.90;;;16.67;;
14516;SDS011;7344;50.864;4.362;2022-12-13T09:39:24;25.13;;;16.10;;
14516;SDS011;7344;50.864;4.362;2022-12-13T09:41:51;29.37;;;16.20;;
14516;SDS011;7344;50.864;4.362;2022-12-13T09:44:20;30.80;;;17.80;;
14516;SDS011;7344;50.864;4.362;2022-12-13T09:46:50;27.50;;;17.13;;
14516;SDS011;7344;50.864;4.362;2022-12-13T09:49:28;17.53;;;13.47;;
14516;SDS011;7344;50.864;4.362;2022-12-13T09:52:01;27.00;;;14.47;;
14516;SDS011;7344;50.864;4.362;2022-12-13T09:54:28;25.00;;;15.30;;
14516;SDS011;7344;50.864;4.362;2022-12-13T09:56:55;22.00;;;14.00;;
14516;SDS011;7344;50.864;4.362;2022-12-13T09:59:29;22.83;;;15.07;;
14516;SDS011;7344;50.864;4.362;2022-12-13T10:02:01;29.17;;;15.00;;
14516;SDS011;7344;50.864;4.362;2022-12-13T10:04:38;21.93;;;13.97;;
14516;SDS011;7344;50.864;4.362;2022-12-13T10:07:04;24.17;;;15.57;;
14516;SDS011;7344;50.864;4.362;2022-12-13T10:09:37;24.87;;;15.57;;
14516;SDS011;7344;50.864;4.362;2022-12-13T10:12:02;24.20;;;16.07;;
14516;SDS011;7344;50.864;4.362;2022-12-13T10:14:31;22.27;;;13.53;;
14516;SDS011;7344;50.864;4.362;2022-12-13T10:17:04;19.63;;;13.50;;
14516;SDS011;7344;50.864;4.362;2022-12-13T10:19:40;20.23;;;13.57;;
14516;SDS011;7344;50.864;4.362;2022-12-13T10:22:09;18.30;;;12.57;;
14516;SDS011;7344;50.864;4.362;2022-12-13T10:27:28;22.73;;;14.33;;
14516;SDS011;7344;50.864;4.362;2022-12-13T10:30:00;18.63;;;13.10;;
14516;SDS011;7344;50.864;4.362;2022-12-13T10:32:26;22.53;;;13.73;;
14516;SDS011;7344;50.864;4.362;2022-12-13T10:34:53;22.27;;;13.70;;
14516;SDS011;7344;50.864;4.362;2022-12-13T10:39:47;22.17;;;13.77;;
14516;SDS011;7344;50.864;4.362;2022-12-13T10:42:14;23.40;;;13.40;;
14516;SDS011;7344;50.864;4.362;2022-12-13T10:44:42;18.00;;;11.67;;
14516;SDS011;7344;50.864;4.362;2022-12-13T10:49:38;20.10;;;13.20;;
14516;SDS011;7344;50.864;4.362;2022-12-13T10:52:22;19.73;;;13.30;;
14516;SDS011;7344;50.864;4.362;2022-12-13T10:54:54;18.77;;;12.40;;
14516;SDS011;7344;50.864;4.362;2022-12-13T10:57:21;19.27;;;12.83;;
14516;SDS011;7344;50.864;4.362;2022-12-13T10:59:48;22.33;;;14.37;;
14516;SDS011;7344;50.864;4.362;2022-12-13T11:02:27;22.77;;;14.73;;
14516;SDS011;7344;50.864;4.362;2022-12-13T11:04:53;17.87;;;12.67;;
14516;SDS011;7344;50.864;4.362;2022-12-13T11:07:26;23.17;;;12.80;;
14516;SDS011;7344;50.864;4.362;2022-12-13T11:09:56;22.57;;;13.93;;
14516;SDS011;7344;50.864;4.362;2022-12-13T11:12:39;29.43;;;16.70;;
14516;SDS011;7344;50.864;4.362;2022-12-13T11:15:05;19.83;;;12.87;;
14516;SDS011;7344;50.864;4.362;2022-12-13T11:17:43;18.33;;;11.93;;
14516;SDS011;7344;50.864;4.362;2022-12-13T11:20:24;20.07;;;13.27;;
14516;SDS011;7344;50.864;4.362;2022-12-13T11:23:01;17.97;;;12.77;;
14516;SDS011;7344;50.864;4.362;2022-12-13T11:25:53;23.90;;;15.53;;
14516;SDS011;7344;50.864;4.362;2022-12-13T11:31:28;19.47;;;12.80;;
14516;SDS011;7344;50.864;4.362;2022-12-13T11:36:48;23.00;;;13.03;;
14516;SDS011;7344;50.864;4.362;2022-12-13T11:41:52;19.60;;;13.20;;
14516;SDS011;7344;50.864;4.362;2022-12-13T11:44:40;17.07;;;11.33;;
14516;SDS011;7344;50.864;4.362;2022-12-13T11:47:15;20.17;;;12.23;;
14516;SDS011;7344;50.864;4.362;2022-12-13T11:49:48;22.40;;;13.70;;
14516;SDS011;7344;50.864;4.362;2022-12-13T11:52:23;26.73;;;14.87;;
14516;SDS011;7344;50.864;4.362;2022-12-13T11:54:55;24.00;;;14.47;;
14516;SDS011;7344;50.864;4.362;2022-12-13T11:57:43;19.50;;;12.60;;
14516;SDS011;7344;50.864;4.362;2022-12-13T12:00:21;20.37;;;12.17;;
14516;SDS011;7344;50.864;4.362;2022-12-13T12:02:57;28.83;;;15.20;;
14516;SDS011;7344;50.864;4.362;2022-12-13T12:05:39;25.13;;;14.53;;
14516;SDS011;7344;50.864;4.362;2022-12-13T12:08:11;27.93;;;15.40;;
14516;SDS011;7344;50.864;4.362;2022-12-13T12:10:47;30.73;;;17.00;;
14516;SDS011;7344;50.864;4.362;2022-12-13T12:13:27;20.93;;;11.97;;
14516;SDS011;7344;50.864;4.362;2022-12-13T12:18:23;28.33;;;16.07;;
14516;SDS011;7344;50.864;4.362;2022-12-13T12:23:49;24.47;;;13.43;;
14516;SDS011;7344;50.864;4.362;2022-12-13T12:26:23;24.47;;;13.10;;
14516;SDS011;7344;50.864;4.362;2022-12-13T12:34:25;24.03;;;13.47;;
14516;SDS011;7344;50.864;4.362;2022-12-13T12:42:38;26.20;;;14.17;;
14516;SDS011;7344;50.864;4.362;2022-12-13T12:45:15;22.50;;;13.67;;
14516;SDS011;7344;50.864;4.362;2022-12-13T12:47:59;23.80;;;14.47;;
14516;SDS011;7344;50.864;4.362;2022-12-13T12:50:52;26.27;;;14.27;;
14516;SDS011;7344;50.864;4.362;2022-12-13T12:56:23;31.80;;;14.77;;
14516;SDS011;7344;50.864;4.362;2022-12-13T12:59:21;22.10;;;11.53;;
14516;SDS011;7344;50.864;4.362;2022-12-13T13:04:32;22.13;;;12.00;;
14516;SDS011;7344;50.864;4.362;2022-12-13T13:07:09;29.20;;;13.17;;
14516;SDS011;7344;50.864;4.362;2022-12-13T13:09:39;26.37;;;13.53;;
14516;SDS011;7344;50.864;4.362;2022-12-13T13:12:05;23.43;;;13.53;;
14516;SDS011;7344;50.864;4.362;2022-12-13T13:14:35;18.50;;;11.57;;
14516;SDS011;7344;50.864;4.362;2022-12-13T13:19:40;30.93;;;13.83;;
14516;SDS011;7344;50.864;4.362;2022-12-13T13:27:59;18.70;;;10.30;;
14516;SDS011;7344;50.864;4.362;2022-12-13T13:30:26;21.87;;;13.30;;
14516;SDS011;7344;50.864;4.362;2022-12-13T13:32:54;15.83;;;9.50;;
14516;SDS011;7344;50.864;4.362;2022-12-13T13:36:06;28.93;;;15.17;;
14516;SDS011;7344;50.864;4.362;2022-12-13T13:40:47;22.63;;;12.27;;
14516;SDS011;7344;50.864;4.362;2022-12-13T13:43:14;19.57;;;12.43;;
14516;SDS011;7344;50.864;4.362;2022-12-13T13:45:51;26.17;;;12.87;;
14516;SDS011;7344;50.864;4.362;2022-12-13T13:54:32;25.03;;;12.90;;
14516;SDS011;7344;50.864;4.362;2022-12-13T14:22:43;29.17;;;15.30;;
14516;SDS011;7344;50.864;4.362;2022-12-13T14:25:30;24.83;;;14.63;;
14516;SDS011;7344;50.864;4.362;2022-12-13T14:30:52;31.27;;;14.77;;
14516;SDS011;7344;50.864;4.362;2022-12-13T14:33:18;25.20;;;14.37;;
14516;SDS011;7344;50.864;4.362;2022-12-13T14:35:53;30.20;;;14.80;;
14516;SDS011;7344;50.864;4.362;2022-12-13T14:38:22;24.30;;;11.17;;
14516;SDS011;7344;50.864;4.362;2022-12-13T14:40:54;26.33;;;14.10;;
14516;SDS011;7344;50.864;4.362;2022-12-13T14:45:55;19.07;;;11.43;;
14516;SDS011;7344;50.864;4.362;2022-12-13T14:48:23;24.60;;;12.07;;
14516;SDS011;7344;50.864;4.362;2022-12-13T14:50:49;25.40;;;13.57;;
14516;SDS011;7344;50.864;4.362;2022-12-13T14:53:26;24.33;;;13.10;;
14516;SDS011;7344;50.864;4.362;2022-12-13T14:56:13;26.53;;;13.97;;
14516;SDS011;7344;50.864;4.362;2022-12-13T14:58:39;30.97;;;15.33;;
14516;SDS011;7344;50.864;4.362;2022-12-13T15:03:52;28.80;;;14.83;;
14516;SDS011;7344;50.864;4.362;2022-12-13T15:06:18;30.10;;;15.70;;
14516;SDS011;7344;50.864;4.362;2022-12-13T15:08:45;29.10;;;16.90;;
14516;SDS011;7344;50.864;4.362;2022-12-13T15:11:11;29.37;;;15.03;;
14516;SDS011;7344;50.864;4.362;2022-12-13T15:13:40;34.47;;;17.30;;
14516;SDS011;7344;50.864;4.362;2022-12-13T15:16:29;32.40;;;17.40;;
14516;SDS011;7344;50.864;4.362;2022-12-13T15:19:06;31.20;;;17.10;;
14516;SDS011;7344;50.864;4.362;2022-12-13T15:21:38;32.80;;;17.73;;
14516;SDS011;7344;50.864;4.362;2022-12-13T15:24:04;34.40;;;19.53;;
14516;SDS011;7344;50.864;4.362;2022-12-13T15:26:31;25.87;;;13.07;;
14516;SDS011;7344;50.864;4.362;2022-12-13T15:29:01;32.23;;;17.63;;
14516;SDS011;7344;50.864;4.362;2022-12-13T15:31:30;39.13;;;18.43;;
14516;SDS011;7344;50.864;4.362;2022-12-13T15:34:19;38.43;;;19.57;;
14516;SDS011;7344;50.864;4.362;2022-12-13T15:36:47;36.07;;;19.13;;
14516;SDS011;7344;50.864;4.362;2022-12-13T15:39:13;30.73;;;16.03;;
14516;SDS011;7344;50.864;4.362;2022-12-13T15:41:45;45.73;;;20.97;;
14516;SDS011;7344;50.864;4.362;2022-12-13T15:44:19;30.93;;;15.50;;
14516;SDS011;7344;50.864;4.362;2022-12-13T15:47:14;40.57;;;21.10;;
14516;SDS011;7344;50.864;4.362;2022-12-13T15:50:03;34.07;;;19.73;;
14516;SDS011;7344;50.864;4.362;2022-12-13T15:55:20;42.77;;;22.20;;
14516;SDS011;7344;50.864;4.362;2022-12-13T15:57:54;42.43;;;19.53;;
14516;SDS011;7344;50.864;4.362;2022-12-13T16:08:02;34.73;;;18.23;;
14516;SDS011;7344;50.864;4.362;2022-12-13T16:10:30;44.80;;;22.17;;
14516;SDS011;7344;50.864;4.362;2022-12-13T16:13:01;42.43;;;22.37;;
14516;SDS011;7344;50.864;4.362;2022-12-13T16:15:29;32.53;;;14.80;;
14516;SDS011;7344;50.864;4.362;2022-12-13T16:18:18;43.80;;;22.97;;
14516;SDS011;7344;50.864;4.362;2022-12-13T16:20:46;43.70;;;24.30;;
14516;SDS011;7344;50.864;4.362;2022-12-13T16:23:14;45.20;;;21.10;;
14516;SDS011;7344;50.864;4.362;2022-12-13T16:25:40;48.50;;;24.33;;
14516;SDS011;7344;50.864;4.362;2022-12-13T16:28:05;49.03;;;24.07;;
14516;SDS011;7344;50.864;4.362;2022-12-13T16:35:44;42.60;;;19.97;;
14516;SDS011;7344;50.864;4.362;2022-12-13T16:38:10;42.83;;;21.97;;
14516;SDS011;7344;50.864;4.362;2022-12-13T16:40:37;50.57;;;23.37;;
14516;SDS011;7344;50.864;4.362;2022-12-13T16:43:03;44.00;;;22.93;;
14516;SDS011;7344;50.864;4.362;2022-12-13T16:45:34;47.73;;;23.27;;
14516;SDS011;7344;50.864;4.362;2022-12-13T16:48:03;44.57;;;23.30;;
14516;SDS011;7344;50.864;4.362;2022-12-13T16:50:31;46.73;;;23.30;;
14516;SDS011;7344;50.864;4.362;2022-12-13T16:52:58;45.87;;;22.80;;
14516;SDS011;7344;50.864;4.362;2022-12-13T16:55:23;45.33;;;24.70;;
14516;SDS011;7344;50.864;4.362;2022-12-13T16:57:58;49.87;;;24.10;;
14516;SDS011;7344;50.864;4.362;2022-12-13T17:00:26;28.27;;;15.27;;